Time,TemperatureF,DewpointF,PressureIn,WindDirection,WindDirectionDegrees,WindSpeedMPH,WindSpeedGustMPH,Humidity,HourlyPrecipIn,Conditions,Clouds,dailyrainin,SoftwareType,DateUTC
2013-08-29 00:00:00,59.2,38.4,29.96,SSW,212,0.0,0.0,46,0.00,,---,0.00,VWS V14.01,2013-08-29 06:00:00,
2013-08-29 00:05:00,58.8,38.7,29.96,SSW,212,0.0,0.0,47,0.00,,---,0.00,VWS V14.01,2013-08-29 06:05:00,
2013-08-29 00:10:00,58.8,38.7,29.99,SSW,212,0.0,0.0,47,0.00,,---,0.00,VWS V14.01,2013-08-29 06:10:00,
2013-08-29 00:15:00,58.5,38.3,29.99,SSW,212,0.0,0.0,47,0.00,,---,0.00,VWS V14.01,2013-08-29 06:15:00,
2013-08-29 00:20:00,58.3,38.2,29.99,SSW,212,0.0,0.0,47,0.00,,---,0.00,VWS V14.01,2013-08-29 06:20:00,
2013-08-29 00:25:00,58.1,38.5,29.99,SSW,212,0.0,0.0,48,0.00,,---,0.00,VWS V14.01,2013-08-29 06:25:00,
2013-08-29 00:30:00,57.9,38.4,29.99,SSW,212,0.0,0.0,48,0.00,,---,0.00,VWS V14.01,2013-08-29 06:30:00,
2013-08-29 00:35:00,57.7,38.2,29.99,SSW,212,0.0,0.0,48,0.00,,---,0.00,VWS V14.01,2013-08-29 06:35:00,
2013-08-29 00:40:00,57.7,38.2,29.99,SSW,212,0.0,0.0,48,0.00,,---,0.00,VWS V14.01,2013-08-29 06:40:00,
2013-08-29 00:45:00,57.7,38.7,29.99,SSW,212,0.0,0.0,49,0.00,,---,0.00,VWS V14.01,2013-08-29 06:45:00,
2013-08-29 00:50:00,57.6,38.6,29.99,SSW,212,0.0,0.0,49,0.00,,---,0.00,VWS V14.01,2013-08-29 06:50:00,
2013-08-29 00:55:00,57.6,39.1,29.99,SSW,212,0.0,0.0,50,0.00,,---,0.00,VWS V14.01,2013-08-29 06:55:00,
2013-08-29 01:00:00,57.4,38.9,29.99,SSW,212,0.0,0.0,50,0.00,,---,0.00,VWS V14.01,2013-08-29 07:00:00,
2013-08-29 01:05:00,57.0,38.6,29.99,SSW,212,0.0,0.0,50,0.00,,---,0.00,VWS V14.01,2013-08-29 07:05:00,
2013-08-29 01:10:00,56.8,38.4,29.99,SSW,212,0.0,0.0,50,0.00,,---,0.00,VWS V14.01,2013-08-29 07:10:00,
2013-08-29 01:15:00,56.7,38.8,29.99,SSW,212,0.0,0.0,51,0.00,,---,0.00,VWS V14.01,2013-08-29 07:15:00,
2013-08-29 01:20:00,56.5,38.6,29.99,SSW,212,0.0,0.0,51,0.00,,---,0.00,VWS V14.01,2013-08-29 07:20:00,
2013-08-29 01:25:00,56.3,38.4,29.99,SSW,212,0.0,0.0,51,0.00,,---,0.00,VWS V14.01,2013-08-29 07:25:00,
2013-08-29 01:30:00,56.1,38.3,29.99,SSW,212,0.0,0.0,51,0.00,,---,0.00,VWS V14.01,2013-08-29 07:30:00,
2013-08-29 01:35:00,56.5,40.0,29.99,SSW,212,0.0,0.0,54,0.00,,---,0.00,VWS V14.01,2013-08-29 07:35:00,
2013-08-29 01:40:00,56.8,39.9,29.99,SSW,212,0.0,0.0,53,0.00,,---,0.00,VWS V14.01,2013-08-29 07:40:00,
2013-08-29 01:45:00,57.4,40.4,29.99,SSW,212,0.0,0.0,53,0.00,,---,0.00,VWS V14.01,2013-08-29 07:45:00,
2013-08-29 01:50:00,57.6,40.1,29.99,SSW,212,0.0,0.0,52,0.00,,---,0.00,VWS V14.01,2013-08-29 07:50:00,
2013-08-29 01:55:00,57.2,39.8,29.99,SSW,212,0.0,0.0,52,0.00,,---,0.00,VWS V14.01,2013-08-29 07:55:00,
2013-08-29 02:00:00,56.8,39.4,29.99,SSW,212,0.0,0.0,52,0.00,,---,0.00,VWS V14.01,2013-08-29 08:00:00,
2013-08-29 02:05:00,56.5,39.1,29.99,SSW,212,0.0,0.0,52,0.00,,---,0.00,VWS V14.01,2013-08-29 08:05:00,
2013-08-29 02:09:00,56.1,38.8,29.99,SSW,212,0.0,0.0,52,0.00,,---,0.00,VWS V14.01,2013-08-29 08:09:00,
2013-08-29 02:14:00,55.9,38.6,29.99,SSW,212,0.0,0.0,52,0.00,,---,0.00,VWS V14.01,2013-08-29 08:14:00,
2013-08-29 02:19:00,55.9,39.1,29.99,SSW,212,0.0,0.0,53,0.00,,---,0.00,VWS V14.01,2013-08-29 08:19:00,
2013-08-29 02:24:00,55.8,38.9,29.99,SSW,212,0.0,0.0,53,0.00,,---,0.00,VWS V14.01,2013-08-29 08:24:00,
2013-08-29 02:29:00,55.8,39.8,29.99,SSW,212,0.0,0.0,55,0.00,,---,0.00,VWS V14.01,2013-08-29 08:29:00,
2013-08-29 02:34:00,55.9,40.5,29.99,SSW,212,0.0,0.0,56,0.00,,---,0.00,VWS V14.01,2013-08-29 08:34:00,
2013-08-29 02:39:00,55.9,40.5,29.99,SSW,212,0.0,0.0,56,0.00,,---,0.00,VWS V14.01,2013-08-29 08:39:00,
2013-08-29 02:44:00,55.9,40.0,29.99,SSW,212,0.0,0.0,55,0.00,,---,0.00,VWS V14.01,2013-08-29 08:44:00,
2013-08-29 02:49:00,55.9,40.5,29.99,SSW,212,0.0,0.0,56,0.00,,---,0.00,VWS V14.01,2013-08-29 08:49:00,
2013-08-29 02:54:00,55.8,40.3,29.99,SSW,212,0.0,0.0,56,0.00,,---,0.00,VWS V14.01,2013-08-29 08:54:00,
2013-08-29 02:59:00,55.4,39.5,29.99,SSW,212,0.0,0.0,55,0.00,,---,0.00,VWS V14.01,2013-08-29 08:59:00,
2013-08-29 03:04:00,55.2,40.3,29.99,SSW,212,0.0,0.0,57,0.00,,---,0.00,VWS V14.01,2013-08-29 09:04:00,
2013-08-29 03:09:00,55.0,40.1,29.96,SSW,212,0.0,0.0,57,0.00,,---,0.00,VWS V14.01,2013-08-29 09:09:00,
2013-08-29 03:14:00,55.0,40.1,29.96,SSW,212,0.0,0.0,57,0.00,,---,0.00,VWS V14.01,2013-08-29 09:14:00,
2013-08-29 03:19:00,54.9,39.9,29.96,SSW,212,0.0,0.0,57,0.00,,---,0.00,VWS V14.01,2013-08-29 09:19:00,
2013-08-29 03:24:00,54.7,39.8,29.99,SSW,212,0.0,0.0,57,0.00,,---,0.00,VWS V14.01,2013-08-29 09:24:00,
2013-08-29 03:29:00,54.7,39.8,29.99,SSW,212,0.0,0.0,57,0.00,,---,0.00,VWS V14.01,2013-08-29 09:29:00,
2013-08-29 03:34:00,54.5,40.0,29.99,SSW,212,0.0,0.0,58,0.00,,---,0.00,VWS V14.01,2013-08-29 09:34:00,
2013-08-29 03:39:00,54.5,40.5,29.99,SSW,212,0.0,0.0,59,0.00,,---,0.00,VWS V14.01,2013-08-29 09:39:00,
2013-08-29 03:44:00,54.5,40.0,29.99,SSW,212,0.0,0.0,58,0.00,,---,0.00,VWS V14.01,2013-08-29 09:44:00,
2013-08-29 03:49:00,54.3,40.3,29.99,SSW,212,0.0,0.0,59,0.00,,---,0.00,VWS V14.01,2013-08-29 09:49:00,
2013-08-29 03:54:00,54.5,40.5,29.99,SSW,212,0.0,0.0,59,0.00,,---,0.00,VWS V14.01,2013-08-29 09:54:00,
2013-08-29 03:59:00,54.3,39.9,29.99,SSW,212,0.0,0.0,58,0.00,,---,0.00,VWS V14.01,2013-08-29 09:59:00,
2013-08-29 04:04:00,54.1,39.7,29.99,SSW,212,0.0,0.0,58,0.00,,---,0.00,VWS V14.01,2013-08-29 10:04:00,
2013-08-29 04:09:00,54.1,40.1,29.99,SSW,212,0.0,0.0,59,0.00,,---,0.00,VWS V14.01,2013-08-29 10:09:00,
2013-08-29 04:14:00,53.8,39.4,29.99,SSW,212,0.0,0.0,58,0.00,,---,0.00,VWS V14.01,2013-08-29 10:14:00,
2013-08-29 04:19:00,53.6,39.2,29.99,SSW,212,0.0,0.0,58,0.00,,---,0.00,VWS V14.01,2013-08-29 10:19:00,
2013-08-29 04:24:00,53.4,39.5,29.99,SSW,212,0.0,0.0,59,0.00,,---,0.00,VWS V14.01,2013-08-29 10:24:00,
2013-08-29 04:29:00,53.4,40.3,29.99,SSW,212,0.0,0.0,61,0.00,,---,0.00,VWS V14.01,2013-08-29 10:29:00,
2013-08-29 04:34:00,53.6,40.5,29.99,SSW,212,0.0,0.0,61,0.00,,---,0.00,VWS V14.01,2013-08-29 10:34:00,
2013-08-29 04:39:00,53.4,40.3,29.99,SSW,212,0.0,0.0,61,0.00,,---,0.00,VWS V14.01,2013-08-29 10:39:00,
2013-08-29 04:44:00,53.1,39.6,29.99,SSW,212,0.0,0.0,60,0.00,,---,0.00,VWS V14.01,2013-08-29 10:44:00,
2013-08-29 04:49:00,53.1,40.0,29.99,SSW,212,0.0,0.0,61,0.00,,---,0.00,VWS V14.01,2013-08-29 10:49:00,
2013-08-29 04:54:00,53.1,40.4,29.99,SW,231,0.0,0.0,62,0.00,,---,0.00,VWS V14.01,2013-08-29 10:54:00,
2013-08-29 04:59:00,53.1,40.4,29.99,SW,231,0.0,0.0,62,0.00,,---,0.00,VWS V14.01,2013-08-29 10:59:00,
2013-08-29 05:04:00,53.1,40.4,29.99,SW,231,0.0,0.0,62,0.00,,---,0.00,VWS V14.01,2013-08-29 11:04:00,
2013-08-29 05:09:00,53.1,40.4,29.99,SW,231,0.0,0.0,62,0.00,,---,0.00,VWS V14.01,2013-08-29 11:09:00,
2013-08-29 05:14:00,53.2,41.0,29.99,SW,231,0.0,0.0,63,0.00,,---,0.00,VWS V14.01,2013-08-29 11:14:00,
2013-08-29 05:19:00,53.4,41.2,29.99,SW,231,0.0,0.0,63,0.00,,---,0.00,VWS V14.01,2013-08-29 11:19:00,
2013-08-29 05:24:00,53.4,41.2,29.99,SW,231,0.0,0.0,63,0.00,,---,0.00,VWS V14.01,2013-08-29 11:24:00,
2013-08-29 05:29:00,53.2,40.6,29.99,SW,231,0.0,0.0,62,0.00,,---,0.00,VWS V14.01,2013-08-29 11:29:00,
2013-08-29 05:34:00,53.1,40.4,29.99,SW,231,0.0,0.0,62,0.00,,---,0.00,VWS V14.01,2013-08-29 11:34:00,
2013-08-29 05:39:00,53.4,41.6,29.99,SW,231,0.0,0.0,64,0.00,,---,0.00,VWS V14.01,2013-08-29 11:39:00,
2013-08-29 05:44:00,53.6,41.3,29.99,SW,236,0.0,0.0,63,0.00,,---,0.00,VWS V14.01,2013-08-29 11:44:00,
2013-08-29 05:49:00,53.8,41.5,29.99,SW,236,0.0,0.0,63,0.00,,---,0.00,VWS V14.01,2013-08-29 11:49:00,
2013-08-29 05:54:00,54.0,41.7,29.99,SW,236,0.0,0.0,63,0.00,,---,0.00,VWS V14.01,2013-08-29 11:54:00,
2013-08-29 05:59:00,53.8,41.1,29.99,SW,236,0.0,0.0,62,0.00,,---,0.00,VWS V14.01,2013-08-29 11:59:00,
2013-08-29 06:04:00,53.6,40.9,29.99,SW,236,0.0,0.0,62,0.00,,---,0.00,VWS V14.01,2013-08-29 12:04:00,
2013-08-29 06:09:00,53.2,40.6,29.99,SW,236,0.0,0.0,62,0.00,,---,0.00,VWS V14.01,2013-08-29 12:09:00,
2013-08-29 06:14:00,53.1,40.4,29.99,SW,236,0.0,0.0,62,0.00,,---,0.00,VWS V14.01,2013-08-29 12:14:00,
2013-08-29 06:19:00,52.7,40.1,29.99,SW,236,0.0,0.0,62,0.00,,---,0.00,VWS V14.01,2013-08-29 12:19:00,
2013-08-29 06:24:00,52.3,39.7,29.99,SW,236,0.0,0.0,62,0.00,,---,0.00,VWS V14.01,2013-08-29 12:24:00,
2013-08-29 06:29:00,52.2,39.5,29.99,SW,236,0.0,0.0,62,0.00,,---,0.00,VWS V14.01,2013-08-29 12:29:00,
2013-08-29 06:34:00,52.2,40.0,29.99,SW,236,0.0,0.0,63,0.00,,---,0.00,VWS V14.01,2013-08-29 12:34:00,
2013-08-29 06:39:00,52.3,40.1,29.99,SW,236,0.0,0.0,63,0.00,,---,0.00,VWS V14.01,2013-08-29 12:39:00,
2013-08-29 06:44:00,52.5,40.3,29.99,SW,236,0.0,0.0,63,0.00,,---,0.00,VWS V14.01,2013-08-29 12:44:00,
2013-08-29 06:49:00,52.9,40.6,29.99,SW,236,0.0,0.0,63,0.00,,---,0.00,VWS V14.01,2013-08-29 12:49:00,
2013-08-29 06:54:00,53.2,41.4,29.99,SW,236,0.0,0.0,64,0.00,,---,0.00,VWS V14.01,2013-08-29 12:54:00,
2013-08-29 06:59:00,53.6,41.3,29.99,SW,236,0.0,0.0,63,0.00,,---,0.00,VWS V14.01,2013-08-29 12:59:00,
2013-08-29 07:04:00,54.3,42.0,29.99,SW,236,0.0,0.0,63,0.00,,---,0.00,VWS V14.01,2013-08-29 13:04:00,
2013-08-29 07:09:00,54.9,42.9,29.99,SW,236,0.0,0.0,64,0.00,,---,0.00,VWS V14.01,2013-08-29 13:09:00,
2013-08-29 07:14:00,55.6,43.2,29.99,WSW,247,0.0,0.0,63,0.00,,---,0.00,VWS V14.01,2013-08-29 13:14:00,
2013-08-29 07:19:00,56.1,43.7,29.99,WSW,247,0.0,0.0,63,0.00,,---,0.00,VWS V14.01,2013-08-29 13:19:00,
2013-08-29 07:24:00,56.7,44.2,30.02,WSW,247,0.0,0.0,63,0.00,,---,0.00,VWS V14.01,2013-08-29 13:24:00,
2013-08-29 07:29:00,57.2,44.3,30.02,WSW,247,0.0,0.0,62,0.00,,---,0.00,VWS V14.01,2013-08-29 13:29:00,
2013-08-29 07:34:00,57.6,44.2,30.02,SSE,153,2.2,3.6,61,0.00,,---,0.00,VWS V14.01,2013-08-29 13:34:00,
2013-08-29 07:39:00,57.7,44.4,30.02,SSE,153,0.0,3.6,61,0.00,,---,0.00,VWS V14.01,2013-08-29 13:39:00,
2013-08-29 07:44:00,57.6,42.9,30.02,SSE,153,0.0,3.6,58,0.00,,---,0.00,VWS V14.01,2013-08-29 13:44:00,
2013-08-29 07:49:00,57.0,42.8,30.02,ESE,103,2.7,3.6,59,0.00,,---,0.00,VWS V14.01,2013-08-29 13:49:00,
2013-08-29 07:54:00,56.3,42.6,30.02,ESE,121,0.0,3.6,60,0.00,,---,0.00,VWS V14.01,2013-08-29 13:54:00,
2013-08-29 07:59:00,56.1,43.3,30.02,ESE,121,0.0,3.6,62,0.04,,---,0.04,VWS V14.01,2013-08-29 13:59:00,
2013-08-29 08:04:00,56.3,46.7,30.02,ESE,121,0.0,0.0,70,0.04,,---,0.04,VWS V14.01,2013-08-29 14:04:00,
2013-08-29 08:09:00,55.9,46.3,29.99,ESE,123,3.6,4.0,70,0.04,,---,0.04,VWS V14.01,2013-08-29 14:09:00,
2013-08-29 08:14:00,55.9,45.9,29.99,East,83,0.0,4.0,69,0.04,,---,0.04,VWS V14.01,2013-08-29 14:14:00,
2013-08-29 08:19:00,55.9,45.9,29.99,East,89,0.0,0.0,69,0.04,,---,0.04,VWS V14.01,2013-08-29 14:19:00,
2013-08-29 08:24:00,55.9,45.9,30.02,East,89,0.0,0.0,69,0.04,,---,0.04,VWS V14.01,2013-08-29 14:24:00,
2013-08-29 08:29:00,56.3,46.3,30.02,SSW,205,0.0,4.9,69,0.04,,---,0.04,VWS V14.01,2013-08-29 14:29:00,
2013-08-29 08:34:00,56.7,47.0,30.02,SSW,205,0.0,0.0,70,0.04,,---,0.04,VWS V14.01,2013-08-29 14:34:00,
2013-08-29 08:39:00,56.8,47.5,30.02,SSW,205,0.0,0.0,71,0.04,,---,0.04,VWS V14.01,2013-08-29 14:39:00,
2013-08-29 08:44:00,57.2,47.9,30.02,SSW,205,0.0,0.0,71,0.04,,---,0.04,VWS V14.01,2013-08-29 14:44:00,
2013-08-29 08:49:00,58.5,49.5,30.02,SSE,155,0.0,0.0,72,0.04,,---,0.04,VWS V14.01,2013-08-29 14:49:00,
2013-08-29 08:54:00,60.1,51.0,30.02,ESE,118,3.1,3.1,72,0.04,,---,0.04,VWS V14.01,2013-08-29 14:54:00,
2013-08-29 08:59:00,61.5,52.4,30.02,ESE,119,0.0,3.1,72,0.04,,---,0.04,VWS V14.01,2013-08-29 14:59:00,
2013-08-29 09:04:00,63.9,54.7,30.02,South,175,0.0,2.7,72,0.00,,---,0.04,VWS V14.01,2013-08-29 15:04:00,
2013-08-29 09:09:00,66.0,56.4,30.02,South,175,0.0,2.7,71,0.00,,---,0.04,VWS V14.01,2013-08-29 15:09:00,
2013-08-29 09:14:00,67.8,57.7,30.02,South,175,0.0,2.7,70,0.00,,---,0.04,VWS V14.01,2013-08-29 15:14:00,
2013-08-29 09:19:00,69.6,58.6,30.02,South,175,0.0,0.0,68,0.00,,---,0.04,VWS V14.01,2013-08-29 15:19:00,
2013-08-29 09:24:00,70.9,59.0,30.02,ESE,105,0.0,0.0,66,0.00,,---,0.04,VWS V14.01,2013-08-29 15:24:00,
2013-08-29 09:29:00,70.9,58.1,30.02,East,98,0.0,3.1,64,0.00,,---,0.04,VWS V14.01,2013-08-29 15:29:00,
2013-08-29 09:34:00,71.2,58.0,30.02,East,92,0.0,2.7,63,0.00,,---,0.04,VWS V14.01,2013-08-29 15:34:00,
2013-08-29 09:39:00,71.8,58.5,30.02,East,88,0.0,2.7,63,0.00,,---,0.04,VWS V14.01,2013-08-29 15:39:00,
2013-08-29 09:44:00,72.1,58.0,30.02,ENE,69,3.1,3.6,61,0.00,,---,0.04,VWS V14.01,2013-08-29 15:44:00,
2013-08-29 09:49:00,72.5,58.3,30.02,ENE,73,0.0,3.6,61,0.00,,---,0.04,VWS V14.01,2013-08-29 15:49:00,
2013-08-29 09:54:00,73.0,57.9,30.02,ENE,74,0.0,3.6,59,0.00,,---,0.04,VWS V14.01,2013-08-29 15:54:00,
2013-08-29 09:59:00,73.6,57.4,30.02,ENE,75,0.0,3.6,57,0.00,,---,0.04,VWS V14.01,2013-08-29 15:59:00,
2013-08-29 10:04:00,74.3,58.6,30.02,East,82,0.0,0.0,58,0.00,,---,0.04,VWS V14.01,2013-08-29 16:04:00,
2013-08-29 10:09:00,74.7,53.1,30.02,ENE,75,0.0,0.0,47,0.00,,---,0.04,VWS V14.01,2013-08-29 16:09:00,
2013-08-29 10:14:00,75.7,53.5,30.02,East,91,2.7,2.7,46,0.00,,---,0.04,VWS V14.01,2013-08-29 16:14:00,
2013-08-29 10:19:00,76.3,54.0,30.02,SE,125,0.0,2.7,46,0.00,,---,0.04,VWS V14.01,2013-08-29 16:19:00,
2013-08-29 10:24:00,76.8,55.1,30.02,ESE,104,0.0,2.7,47,0.00,,---,0.04,VWS V14.01,2013-08-29 16:24:00,
2013-08-29 10:29:00,77.9,54.9,30.02,ESE,103,0.0,2.7,45,0.00,,---,0.04,VWS V14.01,2013-08-29 16:29:00,
2013-08-29 10:34:00,78.4,54.7,30.02,East,89,0.0,0.0,44,0.00,,---,0.04,VWS V14.01,2013-08-29 16:34:00,
2013-08-29 10:39:00,79.0,54.6,30.02,East,88,0.0,0.0,43,0.00,,---,0.04,VWS V14.01,2013-08-29 16:39:00,
2013-08-29 10:44:00,79.2,49.2,30.02,East,100,0.0,3.1,35,0.00,,---,0.04,VWS V14.01,2013-08-29 16:44:00,
2013-08-29 10:49:00,79.2,51.4,30.02,East,100,0.0,2.7,38,0.00,,---,0.04,VWS V14.01,2013-08-29 16:49:00,
2013-08-29 10:54:00,79.9,53.4,30.02,ENE,78,0.0,2.7,40,0.00,,---,0.04,VWS V14.01,2013-08-29 16:54:00,
2013-08-29 10:59:00,79.9,45.7,30.02,ENE,78,0.0,2.7,30,0.00,,---,0.04,VWS V14.01,2013-08-29 16:59:00,
2013-08-29 11:04:00,79.5,46.3,30.02,North,2,2.2,2.2,31,0.00,,---,0.04,VWS V14.01,2013-08-29 17:04:00,
2013-08-29 11:09:00,80.2,48.5,29.99,East,81,3.1,3.1,33,0.00,,---,0.04,VWS V14.01,2013-08-29 17:09:00,
2013-08-29 11:14:00,79.7,45.6,29.99,NE,56,0.0,3.1,30,0.00,,---,0.04,VWS V14.01,2013-08-29 17:14:00,
2013-08-29 11:19:00,79.2,45.1,29.99,NE,51,0.0,0.0,30,0.00,,---,0.04,VWS V14.01,2013-08-29 17:19:00,
2013-08-29 11:24:00,79.9,46.6,29.99,ENE,76,0.0,3.1,31,0.00,,---,0.04,VWS V14.01,2013-08-29 17:24:00,
2013-08-29 11:29:00,80.2,42.3,29.99,North,5,0.0,3.1,26,0.00,,---,0.04,VWS V14.01,2013-08-29 17:29:00,
2013-08-29 11:34:00,79.5,43.6,29.99,North,5,0.0,0.0,28,0.00,,---,0.04,VWS V14.01,2013-08-29 17:34:00,
2013-08-29 11:39:00,79.5,42.6,29.99,North,10,0.0,0.0,27,0.00,,---,0.04,VWS V14.01,2013-08-29 17:39:00,
2013-08-29 11:44:00,80.2,43.3,29.99,NNE,22,0.0,2.7,27,0.00,,---,0.04,VWS V14.01,2013-08-29 17:44:00,
2013-08-29 11:49:00,80.4,42.4,29.99,North,357,0.0,0.0,26,0.00,,---,0.04,VWS V14.01,2013-08-29 17:49:00,
2013-08-29 11:54:00,80.4,41.4,29.99,NE,39,0.0,2.7,25,0.00,,---,0.04,VWS V14.01,2013-08-29 17:54:00,
2013-08-29 11:59:00,80.6,41.6,29.99,NNW,346,0.0,3.1,25,0.00,,---,0.04,VWS V14.01,2013-08-29 17:59:00,
2013-08-29 12:04:00,80.8,40.7,29.99,North,0,0.0,2.2,24,0.00,,---,0.04,VWS V14.01,2013-08-29 18:04:00,
2013-08-29 12:09:00,81.1,43.0,29.99,NE,55,0.0,2.7,26,0.00,,---,0.04,VWS V14.01,2013-08-29 18:09:00,
2013-08-29 12:14:00,82.0,41.7,29.99,NNE,18,2.2,3.1,24,0.00,,---,0.04,VWS V14.01,2013-08-29 18:14:00,
2013-08-29 12:19:00,82.6,42.2,29.99,ENE,63,0.0,4.0,24,0.00,,---,0.04,VWS V14.01,2013-08-29 18:19:00,
2013-08-29 12:24:00,82.8,41.2,29.99,NNE,17,0.0,4.0,23,0.00,,---,0.04,VWS V14.01,2013-08-29 18:24:00,
2013-08-29 12:29:00,83.5,40.7,29.99,NE,56,2.2,4.0,22,0.00,,---,0.04,VWS V14.01,2013-08-29 18:29:00,
2013-08-29 12:34:00,84.2,40.1,29.99,North,10,0.0,3.1,21,0.00,,---,0.04,VWS V14.01,2013-08-29 18:34:00,
2013-08-29 12:39:00,84.9,40.7,29.96,ENE,70,0.0,3.1,21,0.00,,---,0.04,VWS V14.01,2013-08-29 18:39:00,
2013-08-29 12:44:00,85.5,41.1,29.96,NNW,346,0.0,3.1,21,0.00,,---,0.04,VWS V14.01,2013-08-29 18:44:00,
2013-08-29 12:49:00,86.0,40.3,29.96,NE,39,0.0,0.0,20,0.00,,---,0.04,VWS V14.01,2013-08-29 18:49:00,
2013-08-29 12:54:00,86.4,40.6,29.96,ENE,66,0.0,0.0,20,0.00,,---,0.04,VWS V14.01,2013-08-29 18:54:00,
2013-08-29 12:59:00,87.1,41.2,29.96,ENE,72,0.0,3.1,20,0.00,,---,0.04,VWS V14.01,2013-08-29 18:59:00,
2013-08-29 13:04:00,87.1,39.9,29.96,NNE,26,0.0,0.0,19,0.00,,---,0.04,VWS V14.01,2013-08-29 19:04:00,
2013-08-29 13:09:00,86.7,39.6,29.96,North,0,0.0,2.7,19,0.00,,---,0.04,VWS V14.01,2013-08-29 19:09:00,
2013-08-29 13:14:00,87.3,40.0,29.96,North,0,0.0,3.1,19,0.00,,---,0.04,VWS V14.01,2013-08-29 19:14:00,
2013-08-29 13:19:00,87.6,40.3,29.96,North,357,0.0,3.6,19,0.00,,---,0.04,VWS V14.01,2013-08-29 19:19:00,
2013-08-29 13:24:00,88.2,40.8,29.93,NNE,30,0.0,3.6,19,0.00,,---,0.04,VWS V14.01,2013-08-29 19:24:00,
2013-08-29 13:29:00,88.7,41.2,29.93,East,91,0.0,3.6,19,0.00,,---,0.04,VWS V14.01,2013-08-29 19:29:00,
2013-08-29 13:34:00,88.9,39.9,29.93,East,91,0.0,0.0,18,0.00,,---,0.04,VWS V14.01,2013-08-29 19:34:00,
2013-08-29 13:39:00,89.8,40.7,29.93,East,88,0.0,0.0,18,0.00,,---,0.04,VWS V14.01,2013-08-29 19:39:00,
2013-08-29 13:44:00,90.7,41.4,29.93,NE,51,0.0,4.0,18,0.00,,---,0.04,VWS V14.01,2013-08-29 19:44:00,
2013-08-29 13:49:00,90.9,41.5,29.93,NNE,32,0.0,4.0,18,0.00,,---,0.04,VWS V14.01,2013-08-29 19:49:00,
2013-08-29 13:54:00,90.3,41.1,29.93,North,350,0.0,4.0,18,0.00,,---,0.04,VWS V14.01,2013-08-29 19:54:00,
2013-08-29 13:59:00,90.3,41.1,29.93,NE,54,0.0,4.0,18,0.00,,---,0.04,VWS V14.01,2013-08-29 19:59:00,
2013-08-29 14:04:00,91.0,41.7,29.93,NNW,338,3.1,3.1,18,0.00,,---,0.04,VWS V14.01,2013-08-29 20:04:00,
2013-08-29 14:09:00,91.4,40.5,29.93,North,7,0.0,4.0,17,0.00,,---,0.04,VWS V14.01,2013-08-29 20:09:00,
2013-08-29 14:14:00,91.6,40.7,29.93,NNE,33,0.0,4.0,17,0.00,,---,0.04,VWS V14.01,2013-08-29 20:14:00,
2013-08-29 14:19:00,91.4,40.5,29.93,East,96,0.0,0.0,17,0.00,,---,0.04,VWS V14.01,2013-08-29 20:19:00,
2013-08-29 14:24:00,89.4,40.4,29.93,ESE,105,0.0,4.0,18,0.00,,---,0.04,VWS V14.01,2013-08-29 20:24:00,
2013-08-29 14:29:00,88.5,39.7,29.93,ESE,105,0.0,4.0,18,0.00,,---,0.04,VWS V14.01,2013-08-29 20:29:00,
2013-08-29 14:34:00,90.1,41.0,29.93,ESE,105,0.0,0.0,18,0.00,,---,0.04,VWS V14.01,2013-08-29 20:34:00,
2013-08-29 14:39:00,91.6,40.7,29.93,NE,38,0.0,0.0,17,0.00,,---,0.04,VWS V14.01,2013-08-29 20:39:00,
2013-08-29 14:44:00,92.8,41.7,29.93,NE,48,0.0,0.0,17,0.00,,---,0.04,VWS V14.01,2013-08-29 20:44:00,
2013-08-29 14:49:00,93.0,41.8,29.93,North,7,0.0,0.0,17,0.00,,---,0.04,VWS V14.01,2013-08-29 20:49:00,
2013-08-29 14:54:00,93.0,41.8,29.91,NNE,15,0.0,0.0,17,0.00,,---,0.04,VWS V14.01,2013-08-29 20:54:00,
2013-08-29 14:59:00,93.2,40.4,29.91,North,357,0.0,0.0,16,0.00,,---,0.04,VWS V14.01,2013-08-29 20:59:00,
2013-08-29 15:04:00,93.2,40.4,29.91,NNW,345,0.0,0.0,16,0.00,,---,0.04,VWS V14.01,2013-08-29 21:04:00,
2013-08-29 15:09:00,93.7,40.8,29.91,NNW,342,0.0,2.7,16,0.00,,---,0.04,VWS V14.01,2013-08-29 21:09:00,
2013-08-29 15:14:00,93.0,41.8,29.91,NNW,343,0.0,2.7,17,0.00,,---,0.04,VWS V14.01,2013-08-29 21:14:00,
2013-08-29 15:19:00,92.8,41.7,29.91,NE,54,0.0,0.0,17,0.00,,---,0.04,VWS V14.01,2013-08-29 21:19:00,
2013-08-29 15:24:00,92.5,41.4,29.91,ENE,74,2.7,3.1,17,0.00,,---,0.04,VWS V14.01,2013-08-29 21:24:00,
2013-08-29 15:29:00,92.1,41.1,29.91,ENE,68,2.2,3.1,17,0.00,,---,0.04,VWS V14.01,2013-08-29 21:29:00,
2013-08-29 15:34:00,90.7,39.9,29.91,North,5,0.0,0.0,17,0.00,,---,0.04,VWS V14.01,2013-08-29 21:34:00,
2013-08-29 15:39:00,89.6,40.5,29.88,North,5,0.0,0.0,18,0.00,,---,0.04,VWS V14.01,2013-08-29 21:39:00,
2013-08-29 15:44:00,88.9,39.9,29.88,ESE,122,0.0,0.0,18,0.00,,---,0.04,VWS V14.01,2013-08-29 21:44:00,
2013-08-29 15:49:00,88.5,39.7,29.88,ESE,123,0.0,0.0,18,0.00,,---,0.04,VWS V14.01,2013-08-29 21:49:00,
2013-08-29 15:54:00,88.0,39.2,29.88,ESE,122,0.0,0.0,18,0.00,,---,0.04,VWS V14.01,2013-08-29 21:54:00,
2013-08-29 15:59:00,87.4,38.8,29.88,ESE,123,0.0,0.0,18,0.00,,---,0.04,VWS V14.01,2013-08-29 21:59:00,
2013-08-29 16:04:00,86.5,38.0,29.88,ESE,123,0.0,0.0,18,0.00,,---,0.04,VWS V14.01,2013-08-29 22:04:00,
2013-08-29 16:09:00,85.6,37.3,29.88,SW,219,6.3,8.7,18,0.00,,---,0.04,VWS V14.01,2013-08-29 22:09:00,
2013-08-29 16:14:00,85.8,29.4,29.88,SSW,193,7.2,11.0,13,0.00,,---,0.04,VWS V14.01,2013-08-29 22:14:00,
2013-08-29 16:19:00,86.5,29.9,29.88,South,189,12.8,15.9,13,0.00,,---,0.04,VWS V14.01,2013-08-29 22:19:00,
2013-08-29 16:24:00,86.4,29.8,29.91,WSW,256,10.5,24.2,13,0.00,,---,0.04,VWS V14.01,2013-08-29 22:24:00,
2013-08-29 16:29:00,84.6,28.4,29.91,SSW,205,13.2,24.2,13,0.00,,---,0.04,VWS V14.01,2013-08-29 22:29:00,
2013-08-29 16:34:00,83.5,29.3,29.91,East,101,3.6,10.5,14,0.00,,---,0.04,VWS V14.01,2013-08-29 22:34:00,
2013-08-29 16:39:00,82.8,32.0,29.91,ESE,110,0.0,10.5,16,0.00,,---,0.04,VWS V14.01,2013-08-29 22:39:00,
2013-08-29 16:44:00,81.9,32.8,29.91,ESE,110,0.0,10.5,17,0.00,,---,0.04,VWS V14.01,2013-08-29 22:44:00,
2013-08-29 16:49:00,81.3,32.4,29.91,ESE,110,0.0,0.0,17,0.00,,---,0.04,VWS V14.01,2013-08-29 22:49:00,
2013-08-29 16:54:00,80.6,34.6,29.93,ESE,110,0.0,0.0,19,0.00,,---,0.04,VWS V14.01,2013-08-29 22:54:00,
2013-08-29 16:59:00,79.7,35.1,29.93,SE,140,3.6,4.0,20,0.00,,---,0.04,VWS V14.01,2013-08-29 22:59:00,
2013-08-29 17:04:00,79.3,34.8,29.93,SSE,164,3.1,4.9,20,0.00,,---,0.04,VWS V14.01,2013-08-29 23:04:00,
2013-08-29 17:09:00,81.0,36.2,29.93,SSE,164,0.0,4.9,20,0.00,,---,0.04,VWS V14.01,2013-08-29 23:09:00,
2013-08-29 17:14:00,85.6,37.3,29.93,ESE,104,4.0,4.9,18,0.00,,---,0.04,VWS V14.01,2013-08-29 23:14:00,
2013-08-29 17:19:00,87.1,35.5,29.93,East,80,0.0,3.6,16,0.00,,---,0.04,VWS V14.01,2013-08-29 23:19:00,
2013-08-29 17:24:00,86.7,38.2,29.93,East,79,0.0,3.6,18,0.00,,---,0.04,VWS V14.01,2013-08-29 23:24:00,
2013-08-29 17:29:00,87.6,38.9,29.93,East,97,0.0,3.6,18,0.00,,---,0.04,VWS V14.01,2013-08-29 23:29:00,
2013-08-29 17:34:00,86.7,35.2,29.93,SE,129,2.7,4.0,16,0.00,,---,0.04,VWS V14.01,2013-08-29 23:34:00,
2013-08-29 17:39:00,83.7,37.1,29.96,South,189,2.7,6.3,19,0.00,,---,0.04,VWS V14.01,2013-08-29 23:39:00,
2013-08-29 17:44:00,81.7,35.5,29.96,SSE,149,4.0,6.3,19,0.00,,---,0.04,VWS V14.01,2013-08-29 23:44:00,
2013-08-29 17:49:00,80.4,35.7,29.96,East,96,0.0,5.4,20,0.00,,---,0.04,VWS V14.01,2013-08-29 23:49:00,
2013-08-29 17:54:00,79.7,35.1,29.96,East,96,0.0,5.4,20,0.00,,---,0.04,VWS V14.01,2013-08-29 23:54:00,
2013-08-29 17:59:00,79.2,34.7,29.96,East,96,0.0,5.4,20,0.00,,---,0.04,VWS V14.01,2013-08-29 23:59:00,
2013-08-29 18:04:00,78.6,34.2,29.96,East,96,0.0,0.0,20,0.00,,---,0.04,VWS V14.01,2013-08-30 00:04:00,
2013-08-29 18:09:00,79.0,34.5,29.96,North,0,2.7,6.3,20,0.00,,---,0.04,VWS V14.01,2013-08-30 00:09:00,
2013-08-29 18:14:00,79.2,34.7,29.96,NNW,328,3.1,6.3,20,0.00,,---,0.04,VWS V14.01,2013-08-30 00:14:00,
2013-08-29 18:19:00,79.2,34.7,29.96,NW,307,0.0,4.0,20,0.00,,---,0.04,VWS V14.01,2013-08-30 00:19:00,
2013-08-29 18:24:00,79.2,34.7,29.96,West,277,0.0,6.3,20,0.00,,---,0.04,VWS V14.01,2013-08-30 00:24:00,
2013-08-29 18:29:00,78.6,34.2,29.96,NNW,337,3.1,6.3,20,0.00,,---,0.04,VWS V14.01,2013-08-30 00:29:00,
2013-08-29 18:34:00,78.1,33.8,29.96,NNE,27,0.0,6.7,20,0.00,,---,0.04,VWS V14.01,2013-08-30 00:34:00,
2013-08-29 18:39:00,77.9,33.6,29.96,West,274,0.0,6.7,20,0.00,,---,0.04,VWS V14.01,2013-08-30 00:39:00,
2013-08-29 18:44:00,78.1,33.8,29.96,West,281,2.7,6.7,20,0.00,,---,0.04,VWS V14.01,2013-08-30 00:44:00,
2013-08-29 18:49:00,77.7,33.5,29.96,WNW,296,0.0,8.1,20,0.00,,---,0.04,VWS V14.01,2013-08-30 00:49:00,
2013-08-29 18:54:00,74.1,32.9,29.96,WSW,242,4.0,8.1,22,0.00,,---,0.04,VWS V14.01,2013-08-30 00:54:00,
2013-08-29 18:59:00,69.1,38.8,29.96,WNW,283,4.0,8.1,33,0.00,,---,0.04,VWS V14.01,2013-08-30 00:59:00,
2013-08-29 19:04:00,70.5,40.1,29.96,NW,322,2.2,8.3,33,0.00,,---,0.04,VWS V14.01,2013-08-30 01:04:00,
2013-08-29 19:09:00,72.9,40.5,29.99,West,269,0.0,8.3,31,0.00,,---,0.04,VWS V14.01,2013-08-30 01:09:00,
2013-08-29 19:14:00,73.9,39.7,29.99,North,0,0.0,8.3,29,0.00,,---,0.04,VWS V14.01,2013-08-30 01:14:00,
2013-08-29 19:19:00,74.3,38.2,29.99,WNW,299,0.0,5.8,27,0.00,,---,0.04,VWS V14.01,2013-08-30 01:19:00,
2013-08-29 19:24:00,74.8,36.7,29.99,WSW,243,2.7,5.8,25,0.00,,---,0.04,VWS V14.01,2013-08-30 01:24:00,
2013-08-29 19:29:00,74.7,39.4,29.99,NNW,342,0.0,5.8,28,0.00,,---,0.04,VWS V14.01,2013-08-30 01:29:00,
2013-08-29 19:34:00,73.8,39.5,29.99,North,3,2.7,4.9,29,0.00,,---,0.04,VWS V14.01,2013-08-30 01:34:00,
2013-08-29 19:39:00,73.0,40.6,29.99,WNW,299,0.0,5.8,31,0.00,,---,0.04,VWS V14.01,2013-08-30 01:39:00,
2013-08-29 19:44:00,72.3,40.8,29.99,SW,216,0.0,5.8,32,0.00,,---,0.04,VWS V14.01,2013-08-30 01:44:00,
2013-08-29 19:49:00,71.8,40.4,29.99,WSW,238,0.0,4.0,32,0.00,,---,0.04,VWS V14.01,2013-08-30 01:49:00,
2013-08-29 19:54:00,71.4,40.8,29.99,NW,324,0.0,4.0,33,0.00,,---,0.04,VWS V14.01,2013-08-30 01:54:00,
2013-08-29 19:59:00,71.1,40.5,29.99,WNW,289,0.0,4.0,33,0.00,,---,0.04,VWS V14.01,2013-08-30 01:59:00,
2013-08-29 20:04:00,70.7,40.2,29.99,West,264,0.0,0.0,33,0.00,,---,0.04,VWS V14.01,2013-08-30 02:04:00,
2013-08-29 20:09:00,70.3,39.9,30.02,West,275,0.0,2.2,33,0.00,,---,0.04,VWS V14.01,2013-08-30 02:09:00,
2013-08-29 20:14:00,70.0,39.6,30.02,West,265,0.0,3.1,33,0.00,,---,0.04,VWS V14.01,2013-08-30 02:14:00,
2013-08-29 20:19:00,69.8,40.2,30.02,WNW,298,0.0,0.0,34,0.00,,---,0.04,VWS V14.01,2013-08-30 02:19:00,
2013-08-29 20:24:00,69.4,39.9,30.02,NW,310,0.0,0.0,34,0.00,,---,0.04,VWS V14.01,2013-08-30 02:24:00,
2013-08-29 20:29:00,69.1,40.3,30.02,West,266,4.9,4.9,35,0.00,,---,0.04,VWS V14.01,2013-08-30 02:29:00,
2013-08-29 20:34:00,68.7,40.0,30.02,WNW,286,0.0,3.6,35,0.00,,---,0.04,VWS V14.01,2013-08-30 02:34:00,
2013-08-29 20:39:00,68.4,40.4,30.02,WNW,285,0.0,3.6,36,0.00,,---,0.04,VWS V14.01,2013-08-30 02:39:00,
2013-08-29 20:44:00,68.4,40.4,30.02,NW,314,0.0,3.6,36,0.00,,---,0.04,VWS V14.01,2013-08-30 02:44:00,
2013-08-29 20:49:00,68.2,40.2,30.02,WNW,303,0.0,0.0,36,0.00,,---,0.04,VWS V14.01,2013-08-30 02:49:00,
2013-08-29 20:54:00,68.4,40.4,30.02,North,7,0.0,5.8,36,0.00,,---,0.04,VWS V14.01,2013-08-30 02:54:00,
2013-08-29 20:59:00,68.7,40.0,30.02,WNW,284,0.0,5.8,35,0.00,,---,0.04,VWS V14.01,2013-08-30 02:59:00,
2013-08-29 21:04:00,68.9,40.2,30.02,NW,318,0.0,4.0,35,0.00,,---,0.04,VWS V14.01,2013-08-30 03:04:00,
2013-08-29 21:09:00,68.7,40.0,29.99,NNW,331,0.0,4.0,35,0.00,,---,0.04,VWS V14.01,2013-08-30 03:09:00,
2013-08-29 21:14:00,68.7,40.0,29.99,NNW,331,0.0,4.0,35,0.00,,---,0.04,VWS V14.01,2013-08-30 03:14:00,
2013-08-29 21:19:00,68.5,39.8,29.99,NNW,334,0.0,0.0,35,0.00,,---,0.04,VWS V14.01,2013-08-30 03:19:00,
2013-08-29 21:24:00,68.0,39.3,30.02,NNW,334,0.0,0.0,35,0.00,,---,0.04,VWS V14.01,2013-08-30 03:24:00,
2013-08-29 21:29:00,66.9,38.4,30.02,NNW,334,0.0,0.0,35,0.00,,---,0.04,VWS V14.01,2013-08-30 03:29:00,
2013-08-29 21:34:00,66.2,38.5,30.02,NNW,334,0.0,0.0,36,0.00,,---,0.04,VWS V14.01,2013-08-30 03:34:00,
2013-08-29 21:39:00,65.5,38.5,30.02,NNW,334,0.0,0.0,37,0.00,,---,0.04,VWS V14.01,2013-08-30 03:39:00,
2013-08-29 21:44:00,64.6,38.4,30.02,NNW,334,0.0,0.0,38,0.00,,---,0.04,VWS V14.01,2013-08-30 03:44:00,
2013-08-29 21:49:00,63.9,39.7,30.02,NNW,334,0.0,0.0,41,0.00,,---,0.04,VWS V14.01,2013-08-30 03:49:00,
2013-08-29 21:54:00,63.5,39.4,30.02,NNW,334,0.0,0.0,41,0.00,,---,0.04,VWS V14.01,2013-08-30 03:54:00,
2013-08-29 21:59:00,62.8,38.8,30.02,NNW,334,0.0,0.0,41,0.00,,---,0.04,VWS V14.01,2013-08-30 03:59:00,
2013-08-29 22:01:00,62.6,39.8,30.02,NNW,334,0.0,0.0,43,0.00,,---,0.04,VWS V14.01,2013-08-30 04:01:00,
2013-08-29 22:06:00,62.1,39.3,30.05,NNW,334,0.0,0.0,43,0.00,,---,0.04,VWS V14.01,2013-08-30 04:06:00,
2013-08-29 22:11:00,61.7,40.2,30.05,West,281,0.0,0.0,45,0.00,,---,0.04,VWS V14.01,2013-08-30 04:11:00,
2013-08-29 22:16:00,61.5,40.0,30.05,WNW,282,0.0,0.0,45,0.00,,---,0.04,VWS V14.01,2013-08-30 04:16:00,
2013-08-29 22:21:00,61.0,39.5,30.02,WNW,282,0.0,0.0,45,0.00,,---,0.04,VWS V14.01,2013-08-30 04:21:00,
2013-08-29 22:26:00,60.6,39.8,30.02,WNW,282,0.0,0.0,46,0.00,,---,0.04,VWS V14.01,2013-08-30 04:26:00,
2013-08-29 22:31:00,60.4,39.6,30.02,WNW,282,0.0,0.0,46,0.00,,---,0.04,VWS V14.01,2013-08-30 04:31:00,
2013-08-29 22:36:00,60.3,40.0,30.02,WNW,282,0.0,0.0,47,0.00,,---,0.04,VWS V14.01,2013-08-30 04:36:00,
2013-08-29 22:41:00,60.1,40.3,30.02,West,281,0.0,0.0,48,0.00,,---,0.04,VWS V14.01,2013-08-30 04:41:00,
2013-08-29 22:45:00,60.1,40.9,30.02,West,273,0.0,0.0,49,0.00,,---,0.04,VWS V14.01,2013-08-30 04:45:00,
2013-08-29 22:49:00,60.1,40.9,30.02,West,273,0.0,0.0,49,0.00,,---,0.04,VWS V14.01,2013-08-30 04:49:00,
2013-08-29 22:54:00,60.1,40.9,30.02,West,273,0.0,0.0,49,0.00,,---,0.04,VWS V14.01,2013-08-30 04:54:00,
2013-08-29 23:00:00,59.7,40.0,30.02,West,273,0.0,0.0,48,0.00,,---,0.04,VWS V14.01,2013-08-30 05:00:00,
2013-08-29 23:04:00,59.5,40.4,30.02,South,169,0.0,0.0,49,0.00,,---,0.04,VWS V14.01,2013-08-30 05:04:00,
2013-08-29 23:09:00,59.2,40.6,30.02,South,187,0.0,0.0,50,0.00,,---,0.04,VWS V14.01,2013-08-30 05:09:00,
2013-08-29 23:15:00,58.6,40.1,30.02,South,187,0.0,0.0,50,0.00,,---,0.04,VWS V14.01,2013-08-30 05:15:00,
2013-08-29 23:19:00,58.1,40.1,30.02,South,187,0.0,0.0,51,0.00,,---,0.04,VWS V14.01,2013-08-30 05:19:00,
2013-08-29 23:24:00,57.9,39.9,30.02,South,187,0.0,0.0,51,0.00,,---,0.04,VWS V14.01,2013-08-30 05:24:00,
2013-08-29 23:29:00,57.9,40.4,30.02,South,187,0.0,0.0,52,0.00,,---,0.04,VWS V14.01,2013-08-30 05:29:00,
2013-08-29 23:34:00,57.6,40.1,30.02,South,187,0.0,0.0,52,0.00,,---,0.04,VWS V14.01,2013-08-30 05:34:00,
2013-08-29 23:39:00,57.6,40.1,30.05,South,187,0.0,0.0,52,0.00,,---,0.04,VWS V14.01,2013-08-30 05:39:00,
2013-08-29 23:44:00,57.4,39.9,30.05,South,187,0.0,0.0,52,0.00,,---,0.04,VWS V14.01,2013-08-30 05:44:00,
2013-08-29 23:49:00,57.2,40.2,30.05,South,187,0.0,0.0,53,0.00,,---,0.04,VWS V14.01,2013-08-30 05:49:00,
2013-08-29 23:54:00,57.2,40.2,30.05,South,187,0.0,0.0,53,0.00,,---,0.04,VWS V14.01,2013-08-30 05:54:00,
2013-08-29 23:59:00,57.0,40.6,30.05,South,187,0.0,0.0,54,0.00,,---,0.04,VWS V14.01,2013-08-30 05:59:00,